Time;durP1;ratioP1;P1;durP2;ratioP2;P2;SDS_P1;SDS_P2;PMS_P1;PMS_P2;Temp;Humidity;BMP_temperature;BMP_pressure;BME280_temperature;BME280_humidity;BME280_pressure;Samples;Min_cycle;Max_cycle;Signal;HPM_P1;HPM_P2
2022/06/23 00:01:23;;;;;;;9.38;6.85;;;15.20;99.90;;;;;;4960921;28;20049;-64
2022/06/23 00:03:54;;;;;;;10.68;7.10;;;15.20;99.90;;;;;;4969703;28;20035;-64
2022/06/23 00:06:40;;;;;;;9.63;6.88;;;15.20;99.90;;;;;;4974906;28;20034;-63
2022/06/23 00:09:31;;;;;;;10.27;6.75;;;15.10;99.90;;;;;;4978240;28;20042;-64
2022/06/23 00:11:57;;;;;;;9.25;6.78;;;15.00;99.90;;;;;;4978362;28;20047;-64
2022/06/23 00:14:25;;;;;;;11.55;7.38;;;15.00;99.90;;;;;;4971866;28;20045;-64
2022/06/23 00:16:50;;;;;;;9.13;7.35;;;14.90;99.90;;;;;;4960992;28;20046;-64
2022/06/23 00:19:16;;;;;;;9.48;7.25;;;14.90;99.90;;;;;;4978749;28;20109;-64
2022/06/23 00:21:46;;;;;;;9.73;7.07;;;14.90;99.90;;;;;;4965762;28;20554;-64
2022/06/23 00:24:24;;;;;;;10.63;7.18;;;14.90;99.90;;;;;;4975268;28;20045;-64
2022/06/23 00:26:51;;;;;;;11.13;7.65;;;14.90;99.90;;;;;;4978933;28;20042;-64
2022/06/23 00:29:21;;;;;;;10.57;7.75;;;14.90;99.90;;;;;;4967722;28;20038;-64
2022/06/23 00:32:01;;;;;;;8.52;7.30;;;14.80;99.90;;;;;;4953495;28;20038;-64
2022/06/23 00:34:39;;;;;;;8.98;7.10;;;14.80;99.90;;;;;;4978613;28;20035;-63
2022/06/23 00:37:10;;;;;;;11.50;7.15;;;14.70;99.90;;;;;;4972686;28;20039;-64
2022/06/23 00:40:04;;;;;;;9.13;7.35;;;14.70;99.90;;;;;;4968664;28;20042;-64
2022/06/23 00:42:40;;;;;;;14.57;7.93;;;14.60;99.90;;;;;;4959146;28;20047;-64
2022/06/23 00:45:11;;;;;;;11.40;7.75;;;14.60;99.90;;;;;;4994864;28;20117;-64
2022/06/23 00:48:09;;;;;;;9.88;7.47;;;14.60;99.90;;;;;;4989625;28;20042;-64
2022/06/23 00:50:44;;;;;;;11.68;8.10;;;14.60;99.90;;;;;;4980914;28;20046;-64
2022/06/23 00:53:12;;;;;;;9.00;7.63;;;14.50;99.90;;;;;;4988611;28;20983;-63
2022/06/23 00:55:44;;;;;;;9.57;7.88;;;14.50;99.90;;;;;;4975430;28;20100;-64
2022/06/23 00:58:47;;;;;;;9.65;7.72;;;14.50;99.90;;;;;;4994017;28;20725;-64
2022/06/23 01:01:40;;;;;;;9.95;7.43;;;14.50;99.90;;;;;;4963208;28;20093;-64
2022/06/23 01:04:33;;;;;;;10.50;7.68;;;14.50;99.90;;;;;;4973260;28;20100;-64
2022/06/23 01:07:28;;;;;;;9.63;7.68;;;14.50;99.90;;;;;;4987792;28;20494;-63
2022/06/23 01:10:31;;;;;;;12.52;7.80;;;14.40;99.90;;;;;;4972911;28;20047;-64
2022/06/23 01:13:03;;;;;;;9.65;7.35;;;14.40;99.90;;;;;;4984536;28;20034;-64
2022/06/23 01:15:45;;;;;;;11.52;8.32;;;14.30;99.90;;;;;;4994023;28;20043;-64
2022/06/23 01:18:10;;;;;;;9.82;7.45;;;14.30;99.90;;;;;;4994384;28;20042;-64
2022/06/23 01:20:56;;;;;;;13.60;8.45;;;14.30;99.90;;;;;;4972379;28;20069;-64
2022/06/23 01:23:43;;;;;;;14.68;8.00;;;14.30;99.90;;;;;;4993282;28;20054;-64
2022/06/23 01:26:14;;;;;;;10.93;7.72;;;14.20;99.90;;;;;;4993862;28;20045;-64
2022/06/23 01:28:40;;;;;;;;;;;14.20;99.90;;;;;;4979250;28;20043;-63
2022/06/23 01:31:18;;;;;;;10.18;7.65;;;14.20;99.90;;;;;;4987924;28;20000;-64
2022/06/23 01:33:49;;;;;;;10.88;8.00;;;14.10;99.90;;;;;;4993849;28;20038;-64
2022/06/23 01:36:34;;;;;;;11.32;8.25;;;14.10;99.90;;;;;;4994121;28;20034;-64
2022/06/23 01:39:13;;;;;;;11.13;7.95;;;14.10;99.90;;;;;;4962577;28;20039;-64
2022/06/23 01:41:41;;;;;;;14.00;8.30;;;14.10;99.90;;;;;;4974539;28;20058;-64
2022/06/23 01:44:21;;;;;;;12.77;8.50;;;14.00;99.90;;;;;;4984905;28;20030;-64
2022/06/23 01:46:52;;;;;;;11.45;8.10;;;14.00;99.90;;;;;;4985671;28;20049;-64
2022/06/23 01:49:26;;;;;;;10.20;8.10;;;13.90;99.90;;;;;;4993310;28;20034;-64
2022/06/23 01:51:54;;;;;;;11.13;8.63;;;14.00;99.90;;;;;;4990761;28;20403;-63
2022/06/23 01:54:19;;;;;;;13.27;9.05;;;13.90;99.90;;;;;;4981844;28;20070;-64
2022/06/23 01:56:55;;;;;;;13.38;8.90;;;13.90;99.90;;;;;;4993371;28;20515;-64
2022/06/23 01:59:53;;;;;;;12.10;9.27;;;13.90;99.90;;;;;;4993399;28;20038;-63
2022/06/23 02:02:46;;;;;;;11.93;8.70;;;13.80;99.90;;;;;;4987329;28;20050;-64
2022/06/23 02:05:45;;;;;;;11.43;8.63;;;13.70;99.90;;;;;;4988442;28;20044;-63
2022/06/23 02:08:26;;;;;;;12.40;8.80;;;13.70;99.90;;;;;;4993371;28;20490;-64
2022/06/23 02:11:12;;;;;;;13.95;9.65;;;13.60;99.90;;;;;;4973256;28;20096;-64
2022/06/23 02:13:55;;;;;;;11.65;8.48;;;13.60;99.90;;;;;;4991817;28;20046;-64
2022/06/23 02:16:45;;;;;;;12.32;8.90;;;13.50;99.90;;;;;;4993038;28;20045;-63
2022/06/23 02:19:34;;;;;;;12.75;8.80;;;13.50;99.90;;;;;;4977400;28;20039;-64
2022/06/23 02:22:09;;;;;;;13.18;9.05;;;13.50;99.90;;;;;;4986362;28;20049;-64
2022/06/23 02:24:51;;;;;;;13.77;9.38;;;13.40;99.90;;;;;;4975679;28;20038;-64
2022/06/23 02:27:23;;;;;;;11.38;8.88;;;13.40;99.90;;;;;;4983010;28;20110;-64
2022/06/23 02:30:26;;;;;;;12.35;8.95;;;13.40;99.90;;;;;;4990609;28;20042;-63
2022/06/23 02:32:55;;;;;;;13.88;9.60;;;13.40;99.90;;;;;;4989645;28;20047;-64
2022/06/23 02:35:27;;;;;;;12.60;8.80;;;13.30;99.90;;;;;;4982939;28;20498;-63
2022/06/23 02:38:08;;;;;;;15.93;9.65;;;13.30;99.90;;;;;;4992073;28;20041;-64
2022/06/23 02:40:47;;;;;;;12.98;9.00;;;13.30;99.90;;;;;;4992658;28;20038;-65
2022/06/23 02:43:36;;;;;;;15.27;9.18;;;13.30;99.90;;;;;;4964803;28;20054;-64
2022/06/23 02:46:54;;;;;;;14.50;8.95;;;13.20;99.90;;;;;;4998038;23;20133;-67
2022/06/23 02:49:40;;;;;;;13.13;8.48;;;13.20;99.90;;;;;;4985838;28;20054;-67
2022/06/23 02:52:11;;;;;;;15.23;9.50;;;13.10;99.90;;;;;;4969214;28;20057;-67
2022/06/23 02:54:58;;;;;;;13.52;9.25;;;13.10;99.90;;;;;;4978897;28;20057;-67
2022/06/23 02:57:39;;;;;;;13.30;9.70;;;13.10;99.90;;;;;;4953056;29;20061;-67
2022/06/23 03:00:13;;;;;;;14.50;9.27;;;13.10;99.90;;;;;;4946952;29;20476;-67
2022/06/23 03:03:16;;;;;;;13.93;9.23;;;13.10;99.90;;;;;;4960477;28;20046;-67
2022/06/23 03:13:41;;;;;;;13.52;9.90;;;12.90;99.90;;;;;;4977520;29;20026;-67
2022/06/23 03:16:36;;;;;;;12.63;9.35;;;12.90;99.90;;;;;;4948773;28;20197;-66
2022/06/23 03:19:19;;;;;;;14.50;9.68;;;12.90;99.90;;;;;;4931817;29;20043;-66
2022/06/23 03:22:03;;;;;;;13.18;8.93;;;12.90;99.90;;;;;;4935832;29;20050;-66
2022/06/23 03:24:40;;;;;;;14.45;9.40;;;12.90;99.90;;;;;;4948216;28;20522;-66
2022/06/23 03:27:12;;;;;;;13.68;8.82;;;12.90;99.90;;;;;;4951589;28;20039;-66
2022/06/23 03:29:55;;;;;;;15.85;10.82;;;12.90;99.90;;;;;;4952643;28;20833;-66
2022/06/23 03:32:34;;;;;;;14.43;10.50;;;12.90;99.90;;;;;;4930905;28;20043;-66
2022/06/23 03:43:32;;;;;;;13.27;10.18;;;12.80;99.90;;;;;;4953263;28;20450;-66
2022/06/23 03:54:12;;;;;;;13.70;9.90;;;12.90;99.90;;;;;;5281011;22;20506;-66
2022/06/23 03:56:49;;;;;;;14.63;9.90;;;13.00;99.90;;;;;;4992334;23;20042;-63
2022/06/23 03:59:16;;;;;;;13.75;9.75;;;13.00;99.90;;;;;;4963631;28;20042;-64
2022/06/23 04:01:59;;;;;;;14.35;9.48;;;13.00;99.90;;;;;;4952746;28;20068;-64
2022/06/23 04:04:56;;;;;;;16.10;10.32;;;13.10;99.90;;;;;;4952779;29;20394;-64
2022/06/23 04:07:34;;;;;;;16.90;10.68;;;13.20;99.90;;;;;;4938838;28;20079;-63
2022/06/23 04:10:07;;;;;;;16.70;10.50;;;13.30;99.90;;;;;;4956228;28;20097;-63
2022/06/23 04:12:34;;;;;;;13.80;10.10;;;13.40;99.90;;;;;;4953919;28;20035;-63
2022/06/23 04:15:08;;;;;;;16.42;10.50;;;13.40;99.90;;;;;;4968559;28;20039;-64
2022/06/23 04:17:42;;;;;;;17.05;10.63;;;13.50;99.90;;;;;;4966761;28;20057;-64
2022/06/23 04:20:30;;;;;;;16.75;11.07;;;13.50;99.90;;;;;;4967986;28;20039;-64
2022/06/23 04:23:10;;;;;;;16.88;11.23;;;13.60;99.90;;;;;;4958377;28;20376;-64
2022/06/23 04:25:46;;;;;;;15.15;10.90;;;13.70;99.90;;;;;;4974535;28;20039;-64
2022/06/23 04:28:29;;;;;;;16.05;11.60;;;13.70;99.90;;;;;;4972313;28;20034;-64
2022/06/23 04:30:57;;;;;;;17.65;11.70;;;13.80;99.90;;;;;;4963908;28;20038;-64
2022/06/23 04:33:25;;;;;;;18.30;11.77;;;13.90;99.90;;;;;;4968294;28;20070;-64
2022/06/23 04:35:54;;;;;;;16.38;11.43;;;14.00;99.90;;;;;;4975364;28;20041;-64
2022/06/23 04:38:45;;;;;;;16.60;11.85;;;14.00;99.90;;;;;;4973623;28;20042;-64
2022/06/23 04:41:18;;;;;;;18.30;11.35;;;14.10;99.90;;;;;;4971440;28;20035;-64
2022/06/23 04:44:25;;;;;;;15.60;11.55;;;14.20;99.90;;;;;;4946554;28;20650;-64
2022/06/23 04:46:58;;;;;;;17.42;11.82;;;14.20;99.90;;;;;;4933553;28;20047;-64
2022/06/23 04:49:48;;;;;;;15.57;11.85;;;14.30;99.90;;;;;;4971451;28;20122;-64
2022/06/23 04:52:27;;;;;;;19.13;12.18;;;14.30;99.90;;;;;;4974284;28;20070;-64
2022/06/23 04:55:12;;;;;;;22.45;12.95;;;14.40;99.90;;;;;;4975597;28;20051;-64
2022/06/23 04:57:57;;;;;;;18.30;13.13;;;14.40;99.90;;;;;;4952166;28;20089;-64
2022/06/23 05:00:27;;;;;;;17.42;12.35;;;14.50;99.90;;;;;;4956232;28;20397;-64
2022/06/23 05:02:59;;;;;;;19.27;13.13;;;14.50;99.90;;;;;;4974773;28;20384;-64
2022/06/23 05:05:34;;;;;;;17.50;12.93;;;14.60;99.90;;;;;;4964369;28;20074;-64
2022/06/23 05:08:14;;;;;;;19.98;13.63;;;14.70;99.90;;;;;;4974808;28;20077;-64
2022/06/23 05:10:54;;;;;;;20.33;13.10;;;14.80;99.90;;;;;;4974637;28;20038;-64
2022/06/23 05:13:23;;;;;;;18.65;13.48;;;14.90;99.90;;;;;;4972447;28;20054;-64
2022/06/23 05:16:14;;;;;;;22.27;14.50;;;14.90;99.90;;;;;;4967428;28;20514;-64
2022/06/23 05:18:46;;;;;;;20.75;13.98;;;15.00;99.90;;;;;;4965632;28;20530;-64
2022/06/23 05:21:43;;;;;;;22.88;13.88;;;15.10;99.90;;;;;;4972141;28;20042;-64
2022/06/23 05:24:39;;;;;;;21.60;14.50;;;15.20;99.90;;;;;;4963805;28;20069;-64
2022/06/23 05:27:14;;;;;;;22.88;14.45;;;15.30;99.90;;;;;;4955192;29;20488;-64
2022/06/23 05:29:49;;;;;;;19.80;14.27;;;15.40;99.90;;;;;;4971760;28;20042;-64
2022/06/23 05:32:26;;;;;;;24.13;13.38;;;15.50;99.90;;;;;;4958376;28;20043;-64
2022/06/23 05:35:01;;;;;;;22.00;14.25;;;15.60;99.90;;;;;;4952752;29;20050;-64
2022/06/23 05:37:39;;;;;;;22.40;14.55;;;15.70;99.90;;;;;;4945190;28;20182;-64
2022/06/23 05:40:22;;;;;;;21.45;13.80;;;15.70;99.90;;;;;;4959894;28;20043;-64
2022/06/23 05:42:51;;;;;;;21.48;14.23;;;15.90;99.90;;;;;;4952082;28;20039;-64
2022/06/23 05:45:25;;;;;;;19.63;13.55;;;15.90;99.90;;;;;;4956276;28;20054;-64
2022/06/23 05:47:53;;;;;;;19.33;14.75;;;16.10;99.90;;;;;;4966613;28;20031;-64
2022/06/23 05:50:28;;;;;;;18.60;13.23;;;16.10;99.90;;;;;;4967227;28;20038;-64
2022/06/23 05:53:35;;;;;;;18.77;13.85;;;16.20;99.90;;;;;;4971519;28;20498;-64
2022/06/23 05:56:30;;;;;;;18.23;13.15;;;16.30;99.90;;;;;;4966168;28;20054;-65
2022/06/23 05:59:03;;;;;;;20.58;14.13;;;16.50;99.90;;;;;;4951751;28;20035;-65
2022/06/23 06:01:33;;;;;;;19.08;12.98;;;16.60;99.90;;;;;;4952034;28;20058;-65
2022/06/23 06:04:05;;;;;;;18.05;13.55;;;16.70;99.90;;;;;;4958632;28;20122;-65
2022/06/23 06:06:32;;;;;;;;;;;16.80;99.90;;;;;;4970975;28;20117;-65
2022/06/23 06:11:49;;;;;;;18.52;13.10;;;16.90;99.90;;;;;;4970341;28;20047;-65
2022/06/23 06:14:22;;;;;;;20.13;13.23;;;17.00;99.90;;;;;;4963020;28;20057;-64
2022/06/23 06:16:48;;;;;;;18.60;13.70;;;17.10;99.90;;;;;;4965279;28;20537;-64
2022/06/23 06:19:16;;;;;;;20.63;13.77;;;17.30;99.90;;;;;;4958238;28;20074;-64
2022/06/23 06:21:43;;;;;;;17.27;14.00;;;17.40;99.90;;;;;;4953233;28;20051;-64
2022/06/23 06:24:09;;;;;;;15.68;12.93;;;17.40;99.90;;;;;;4970744;28;20042;-64
2022/06/23 06:26:41;;;;;;;18.40;14.05;;;17.50;99.90;;;;;;4938853;28;20047;-64
2022/06/23 06:29:21;;;;;;;16.83;13.35;;;17.60;99.90;;;;;;4970078;28;20054;-64
2022/06/23 06:32:00;;;;;;;18.83;13.50;;;17.70;99.90;;;;;;4957406;28;20035;-64
2022/06/23 06:34:29;;;;;;;19.90;13.63;;;17.90;99.90;;;;;;4973304;28;20043;-64
2022/06/23 06:36:55;;;;;;;17.17;13.85;;;17.90;99.90;;;;;;4970087;28;20089;-64
2022/06/23 06:39:34;;;;;;;20.50;13.45;;;18.00;99.90;;;;;;4972086;28;20485;-64
2022/06/23 06:42:05;;;;;;;17.05;13.65;;;18.20;99.90;;;;;;4966563;28;20046;-64
2022/06/23 06:44:32;;;;;;;18.08;13.40;;;18.30;99.90;;;;;;4970269;28;20522;-64
2022/06/23 06:46:59;;;;;;;16.75;13.38;;;18.30;99.90;;;;;;4966635;28;20036;-64
2022/06/23 06:49:28;;;;;;;17.88;13.02;;;18.50;99.90;;;;;;4969462;28;20041;-64
2022/06/23 06:51:55;;;;;;;17.88;12.35;;;18.60;99.90;;;;;;4968867;28;20657;-64
2022/06/23 06:54:31;;;;;;;15.43;12.40;;;18.70;99.90;;;;;;4966007;28;20043;-64
2022/06/23 06:57:02;;;;;;;17.60;12.77;;;18.80;99.90;;;;;;4958809;28;20481;-64
2022/06/23 06:59:42;;;;;;;18.42;12.00;;;18.90;99.90;;;;;;4952654;29;20043;-64
2022/06/23 07:02:25;;;;;;;18.52;11.23;;;19.00;99.90;;;;;;4961840;28;20038;-64
2022/06/23 07:05:08;;;;;;;15.82;11.57;;;19.10;99.90;;;;;;4964752;28;20038;-64
2022/06/23 07:07:40;;;;;;;16.50;11.55;;;19.20;99.90;;;;;;4971993;28;20039;-64
2022/06/23 07:10:16;;;;;;;15.45;11.30;;;19.30;99.90;;;;;;4967425;28;20031;-64
2022/06/23 07:12:53;;;;;;;15.73;11.25;;;19.40;99.90;;;;;;4940396;28;20054;-64
2022/06/23 07:15:49;;;;;;;11.55;10.20;;;19.50;99.90;;;;;;4968154;28;20054;-64
2022/06/23 07:18:54;;;;;;;14.23;10.93;;;19.60;99.90;;;;;;4966435;28;20566;-64
2022/06/23 07:21:25;;;;;;;14.30;10.57;;;19.80;99.90;;;;;;4967983;28;20043;-64
2022/06/23 07:24:12;;;;;;;14.15;10.25;;;19.90;99.90;;;;;;4988994;28;20561;-64
2022/06/23 07:26:40;;;;;;;13.40;10.20;;;20.00;99.90;;;;;;4986648;28;20039;-64
2022/06/23 07:29:33;;;;;;;14.27;9.38;;;20.20;99.90;;;;;;4970653;28;20507;-64
2022/06/23 07:32:06;;;;;;;16.75;9.50;;;20.30;99.90;;;;;;4967629;28;20031;-64
2022/06/23 07:34:47;;;;;;;16.77;9.70;;;20.40;99.90;;;;;;4963907;28;20049;-64
2022/06/23 07:37:22;;;;;;;14.27;9.88;;;20.50;99.90;;;;;;4966387;28;20527;-64
2022/06/23 07:39:53;;;;;;;13.48;9.20;;;20.60;99.90;;;;;;4965275;28;20046;-64
2022/06/23 07:42:35;;;;;;;16.02;9.57;;;20.70;99.90;;;;;;4970990;28;20086;-64
2022/06/23 07:45:10;;;;;;;15.18;9.57;;;20.80;99.90;;;;;;4962951;28;20058;-64
2022/06/23 07:47:35;;;;;;;13.35;9.48;;;20.90;99.90;;;;;;4967800;28;20035;-64
2022/06/23 07:50:02;;;;;;;14.43;8.82;;;21.00;99.90;;;;;;4973653;28;20061;-64
2022/06/23 07:52:28;;;;;;;15.18;9.35;;;21.10;99.90;;;;;;4970973;28;20422;-64
2022/06/23 07:54:54;;;;;;;11.02;8.65;;;21.20;99.90;;;;;;4962618;28;20039;-64
2022/06/23 07:57:19;;;;;;;14.57;10.20;;;21.30;99.90;;;;;;4955748;28;20046;-64
2022/06/23 07:59:59;;;;;;;18.52;9.50;;;21.40;99.90;;;;;;4955494;28;20125;-64
2022/06/23 08:02:31;;;;;;;14.25;9.15;;;21.50;99.90;;;;;;4971700;28;20107;-64
2022/06/23 08:05:08;;;;;;;14.18;9.05;;;21.70;99.90;;;;;;4944939;29;20073;-64
2022/06/23 08:07:35;;;;;;;14.07;9.60;;;21.70;99.90;;;;;;4962402;28;20050;-64
2022/06/23 08:10:06;;;;;;;15.70;9.77;;;21.80;99.90;;;;;;4967147;28;20403;-64
2022/06/23 08:12:56;;;;;;;15.65;9.63;;;21.90;99.90;;;;;;4947660;28;20406;-64
2022/06/23 08:18:38;;;;;;;17.35;10.32;;;22.10;99.90;;;;;;4955430;28;20047;-64
2022/06/23 08:21:14;;;;;;;13.15;9.55;;;22.20;99.90;;;;;;4955089;29;20519;-64
2022/06/23 08:23:57;;;;;;;16.08;9.75;;;22.30;99.90;;;;;;4961671;28;20046;-64
2022/06/23 08:26:24;;;;;;;17.25;10.13;;;22.50;99.90;;;;;;4965738;28;20443;-64
2022/06/23 08:28:55;;;;;;;11.50;9.23;;;22.60;99.90;;;;;;4959334;28;20035;-64
2022/06/23 08:31:21;;;;;;;15.65;8.93;;;22.70;99.90;;;;;;4974600;28;20073;-64
2022/06/23 08:33:47;;;;;;;12.77;8.55;;;22.70;99.90;;;;;;4973092;28;20062;-64
2022/06/23 08:36:18;;;;;;;10.48;8.90;;;22.90;99.90;;;;;;4970807;28;20455;-64
2022/06/23 08:38:46;;;;;;;;;;;23.00;99.90;;;;;;4955720;28;20591;-64
2022/06/23 08:41:40;;;;;;;15.55;8.77;;;23.00;99.90;;;;;;4963623;28;20305;-64
2022/06/23 08:44:19;;;;;;;11.68;8.65;;;23.20;99.90;;;;;;4974114;28;20050;-64
2022/06/23 08:47:19;;;;;;;14.27;9.52;;;23.40;99.90;;;;;;4974626;28;20039;-64
2022/06/23 08:49:55;;;;;;;15.15;8.63;;;23.40;99.90;;;;;;4922272;28;20055;-64
2022/06/23 08:52:44;;;;;;;14.40;8.45;;;23.60;99.90;;;;;;4972328;28;20078;-64
2022/06/23 08:55:16;;;;;;;11.50;8.13;;;23.70;99.90;;;;;;4969428;28;20147;-64
2022/06/23 08:58:04;;;;;;;10.98;7.60;;;23.80;99.90;;;;;;4971974;28;20299;-64
2022/06/23 09:00:45;;;;;;;12.93;7.90;;;24.00;99.40;;;;;;4960744;28;20051;-64
2022/06/23 09:03:19;;;;;;;9.35;7.82;;;24.10;99.90;;;;;;4969116;28;20141;-64
2022/06/23 09:06:01;;;;;;;11.80;8.23;;;24.10;99.90;;;;;;4974068;28;20062;-64
2022/06/23 09:08:42;;;;;;;11.95;7.65;;;24.20;99.30;;;;;;4949349;28;20050;-64
2022/06/23 09:11:22;;;;;;;12.13;7.70;;;24.50;99.90;;;;;;4963804;28;20081;-64
2022/06/23 09:14:24;;;;;;;12.00;8.50;;;24.60;97.50;;;;;;4971193;28;20047;-64
2022/06/23 09:17:05;;;;;;;11.10;7.85;;;24.70;99.10;;;;;;4966064;28;20037;-64
2022/06/23 09:19:54;;;;;;;11.00;7.77;;;24.80;99.20;;;;;;4956348;28;20043;-64
2022/06/23 09:22:36;;;;;;;10.07;7.70;;;25.00;98.10;;;;;;4954461;29;20035;-64
2022/06/23 09:25:12;;;;;;;9.98;7.38;;;25.10;98.90;;;;;;4972285;28;20112;-64
2022/06/23 09:28:07;;;;;;;13.32;7.63;;;25.20;98.30;;;;;;4955648;28;20057;-64
2022/06/23 09:30:35;;;;;;;13.20;7.30;;;25.30;99.20;;;;;;4969445;28;20049;-65
2022/06/23 09:33:23;;;;;;;9.85;7.32;;;25.40;99.10;;;;;;4967418;28;20035;-64
2022/06/23 09:36:13;;;;;;;8.60;7.50;;;25.60;96.70;;;;;;4973573;28;20503;-65
2022/06/23 09:38:59;;;;;;;8.80;6.97;;;25.70;97.70;;;;;;4969421;28;20046;-65
2022/06/23 09:41:38;;;;;;;10.98;7.32;;;25.80;98.00;;;;;;4962674;28;20039;-65
2022/06/23 09:44:30;;;;;;;10.13;7.40;;;26.00;96.20;;;;;;4955419;28;20032;-65
2022/06/23 09:47:04;;;;;;;10.20;7.38;;;26.00;96.70;;;;;;4954305;28;20051;-64
2022/06/23 09:49:41;;;;;;;9.30;7.63;;;26.10;95.50;;;;;;4956498;28;20035;-64
2022/06/23 09:52:46;;;;;;;13.85;7.22;;;26.20;96.50;;;;;;4968223;28;20070;-64
2022/06/23 09:55:33;;;;;;;10.73;7.38;;;26.20;95.30;;;;;;4941290;28;20125;-64
2022/06/23 09:58:33;;;;;;;10.25;7.30;;;26.30;95.70;;;;;;4963999;28;20058;-64
2022/06/23 10:01:17;;;;;;;9.02;7.10;;;26.40;95.70;;;;;;4966580;28;20091;-64
2022/06/23 10:03:52;;;;;;;8.18;7.07;;;26.50;94.00;;;;;;4968969;28;20584;-64
2022/06/23 10:06:50;;;;;;;9.73;7.10;;;26.50;96.40;;;;;;4960841;28;20043;-64
2022/06/23 10:09:48;;;;;;;15.48;6.65;;;26.70;94.30;;;;;;4953748;28;20036;-64
2022/06/23 10:12:41;;;;;;;9.32;6.28;;;26.50;93.40;;;;;;4956492;28;20169;-65
2022/06/23 10:15:35;;;;;;;9.05;5.68;;;26.80;93.40;;;;;;4961213;28;20043;-66
2022/06/23 10:18:24;;;;;;;8.65;6.20;;;27.00;91.20;;;;;;4965283;28;20081;-65
2022/06/23 10:21:14;;;;;;;9.10;6.28;;;27.10;91.40;;;;;;4956132;28;20458;-65
2022/06/23 10:23:59;;;;;;;9.18;6.80;;;27.20;92.00;;;;;;4963056;28;20051;-65
2022/06/23 10:26:44;;;;;;;9.18;6.40;;;27.20;94.60;;;;;;4965008;28;20049;-66
2022/06/23 10:29:34;;;;;;;8.10;6.45;;;27.40;91.70;;;;;;4960652;28;20039;-65
2022/06/23 10:32:18;;;;;;;13.93;7.05;;;27.40;93.50;;;;;;4965750;28;20097;-65
2022/06/23 10:35:11;;;;;;;11.93;6.60;;;27.60;92.60;;;;;;4964431;28;20051;-65
2022/06/23 10:38:14;;;;;;;13.73;7.03;;;27.70;92.30;;;;;;4963312;28;20121;-65
2022/06/23 10:41:09;;;;;;;8.43;5.30;;;27.80;91.80;;;;;;4961483;28;20039;-65
2022/06/23 10:43:56;;;;;;;10.93;6.57;;;27.90;90.00;;;;;;4953057;28;20055;-65
2022/06/23 10:46:30;;;;;;;10.35;6.15;;;28.00;91.00;;;;;;4935440;29;20047;-65
2022/06/23 10:49:14;;;;;;;10.82;5.80;;;28.10;91.40;;;;;;4968555;28;20039;-65
2022/06/23 10:52:23;;;;;;;8.95;6.20;;;28.20;90.30;;;;;;4959206;28;20039;-65
2022/06/23 10:54:57;;;;;;;10.20;5.68;;;28.30;84.20;;;;;;4958220;28;20495;-65
2022/06/23 10:57:26;;;;;;;7.78;5.90;;;28.40;91.00;;;;;;4959125;28;20420;-65
2022/06/23 11:00:29;;;;;;;8.88;5.30;;;28.50;90.40;;;;;;4954158;28;20031;-65
2022/06/23 11:03:22;;;;;;;8.15;5.43;;;28.60;83.10;;;;;;4969403;28;20073;-65
2022/06/23 11:06:05;;;;;;;7.75;5.72;;;28.50;82.20;;;;;;4959542;28;20047;-65
2022/06/23 11:08:31;;;;;;;13.98;5.68;;;28.70;88.10;;;;;;4956408;28;20052;-65
2022/06/23 11:11:33;;;;;;;8.45;5.28;;;28.90;90.00;;;;;;4962414;28;20479;-65
2022/06/23 11:14:09;;;;;;;9.05;5.57;;;29.00;81.70;;;;;;4957584;28;20039;-65
2022/06/23 11:16:45;;;;;;;8.30;5.93;;;29.00;85.20;;;;;;4951894;28;20581;-68
2022/06/23 11:19:36;;;;;;;6.53;5.18;;;29.10;85.40;;;;;;4945858;28;20569;-68
2022/06/23 11:22:23;;;;;;;12.38;5.65;;;29.20;85.50;;;;;;4956821;28;20403;-68
2022/06/23 11:25:13;;;;;;;8.63;5.00;;;29.40;85.50;;;;;;4969228;28;20054;-68
2022/06/23 11:27:53;;;;;;;8.50;3.85;;;29.50;82.30;;;;;;4964854;28;20070;-68
2022/06/23 11:30:38;;;;;;;5.03;4.22;;;29.70;75.50;;;;;;4964335;28;20038;-68
2022/06/23 11:33:11;;;;;;;9.88;4.45;;;29.70;71.30;;;;;;4965661;28;20039;-68
2022/06/23 11:36:05;;;;;;;6.68;4.20;;;29.80;71.50;;;;;;4941880;28;20090;-68
2022/06/23 11:38:34;;;;;;;6.05;4.03;;;30.00;71.80;;;;;;4962268;28;20035;-68
2022/06/23 11:41:26;;;;;;;6.13;4.15;;;30.10;74.20;;;;;;4947087;28;20427;-68
2022/06/23 11:44:10;;;;;;;5.38;4.00;;;30.20;70.20;;;;;;4939468;28;20057;-67
2022/06/23 11:46:57;;;;;;;6.95;4.20;;;30.20;68.00;;;;;;4958231;28;20040;-68
2022/06/23 11:49:43;;;;;;;4.78;3.70;;;30.40;67.40;;;;;;4959438;28;20562;-67
2022/06/23 11:52:47;;;;;;;10.40;4.25;;;30.60;63.80;;;;;;4971624;28;20039;-68
2022/06/23 11:55:22;;;;;;;6.00;3.67;;;30.70;62.50;;;;;;4962786;28;20050;-68
2022/06/23 11:58:13;;;;;;;6.78;3.50;;;30.70;66.50;;;;;;4954352;28;20058;-67
2022/06/23 12:00:57;;;;;;;6.93;3.65;;;30.70;60.00;;;;;;4948548;28;20051;-67
2022/06/23 12:04:07;;;;;;;4.20;3.50;;;30.80;61.60;;;;;;4960104;28;20094;-67
2022/06/23 12:07:05;;;;;;;10.57;3.87;;;30.80;59.00;;;;;;4945995;28;20051;-67
2022/06/23 12:09:36;;;;;;;6.65;3.38;;;30.80;56.80;;;;;;4952103;29;20403;-69
2022/06/23 12:12:05;;;;;;;5.88;3.60;;;30.90;58.30;;;;;;4967066;28;20039;-68
2022/06/23 12:14:33;;;;;;;6.30;3.67;;;31.00;58.90;;;;;;4953087;28;20587;-68
2022/06/23 12:17:09;;;;;;;5.05;3.70;;;31.20;61.10;;;;;;4935135;28;20042;-67
2022/06/23 12:19:45;;;;;;;5.97;3.80;;;31.20;58.30;;;;;;4967382;28;20046;-67
2022/06/23 12:22:41;;;;;;;11.48;4.50;;;31.40;59.10;;;;;;4955899;28;20491;-67
2022/06/23 12:25:32;;;;;;;6.18;4.03;;;31.40;56.30;;;;;;4948748;28;20054;-68
2022/06/23 12:28:36;;;;;;;6.30;3.70;;;31.50;56.50;;;;;;4956939;28;20067;-68
2022/06/23 12:31:26;;;;;;;6.30;3.60;;;31.50;54.30;;;;;;4945757;28;20043;-68
2022/06/23 12:34:06;;;;;;;;;;;31.50;53.10;;;;;;4959936;28;20153;-68
2022/06/23 12:36:56;;;;;;;10.60;4.35;;;31.50;54.70;;;;;;4955752;28;19949;-68
2022/06/23 12:39:54;;;;;;;7.63;4.10;;;31.70;55.90;;;;;;4946731;28;20104;-68
2022/06/23 12:42:34;;;;;;;9.43;5.10;;;31.70;51.70;;;;;;4955774;28;20102;-68
2022/06/23 12:45:15;;;;;;;12.40;4.23;;;31.80;54.50;;;;;;4962962;28;20041;-67
2022/06/23 12:47:59;;;;;;;7.50;4.13;;;32.00;56.00;;;;;;4951803;28;20275;-67
2022/06/23 12:50:51;;;;;;;8.88;4.68;;;32.10;53.10;;;;;;4953893;28;20046;-67
2022/06/23 12:53:51;;;;;;;8.15;3.70;;;32.20;52.10;;;;;;4918216;28;20054;-67
2022/06/23 12:56:40;;;;;;;7.50;3.45;;;32.30;53.00;;;;;;4958625;28;20053;-68
2022/06/23 12:59:15;;;;;;;7.82;3.97;;;32.50;55.60;;;;;;4965169;28;20524;-67
2022/06/23 13:02:30;;;;;;;10.50;4.00;;;32.70;55.10;;;;;;4961248;28;20534;-68
2022/06/23 13:05:07;;;;;;;6.30;3.60;;;32.80;52.50;;;;;;4950056;28;20846;-68
2022/06/23 13:07:41;;;;;;;7.40;4.05;;;33.00;54.30;;;;;;4960571;28;20118;-67
2022/06/23 13:10:16;;;;;;;8.45;3.95;;;33.00;52.70;;;;;;4961696;28;20535;-66
2022/06/23 13:13:04;;;;;;;9.40;3.90;;;33.10;53.70;;;;;;4957669;28;20042;-66
2022/06/23 13:15:50;;;;;;;4.80;3.65;;;33.10;53.50;;;;;;4965533;28;20051;-66
2022/06/23 13:18:29;;;;;;;7.38;3.70;;;33.20;51.50;;;;;;4961767;28;20114;-66
2022/06/23 13:21:00;;;;;;;6.50;3.70;;;33.10;48.40;;;;;;4961250;28;20537;-66
2022/06/23 13:23:54;;;;;;;5.43;3.72;;;33.10;51.40;;;;;;4955632;28;20518;-66
2022/06/23 13:26:22;;;;;;;8.35;3.60;;;33.20;51.20;;;;;;4967288;28;20097;-66
2022/06/23 13:29:00;;;;;;;9.30;3.70;;;33.20;52.90;;;;;;4962146;28;20039;-66
2022/06/23 13:31:51;;;;;;;5.82;3.80;;;33.20;50.40;;;;;;4960993;28;20507;-65
2022/06/23 13:34:27;;;;;;;4.18;3.53;;;33.40;51.80;;;;;;4956579;28;20050;-65
2022/06/23 13:37:12;;;;;;;4.40;3.70;;;33.60;51.50;;;;;;4954051;29;20131;-65
2022/06/23 13:39:52;;;;;;;6.97;3.60;;;33.60;51.20;;;;;;4970654;28;20038;-65
2022/06/23 13:42:30;;;;;;;5.15;4.05;;;33.60;47.90;;;;;;4962139;28;20492;-66
2022/06/23 13:45:01;;;;;;;4.75;3.40;;;33.60;49.90;;;;;;4953609;28;20035;-66
2022/06/23 13:47:35;;;;;;;8.18;3.97;;;33.50;48.30;;;;;;4954113;29;20098;-66
2022/06/23 13:50:30;;;;;;;5.60;3.72;;;33.70;49.80;;;;;;4942430;28;20064;-66
2022/06/23 13:53:32;;;;;;;5.03;3.78;;;33.70;49.10;;;;;;4946666;28;20069;-65
2022/06/23 13:56:24;;;;;;;5.47;3.92;;;33.80;51.50;;;;;;4952582;28;20090;-66
2022/06/23 13:58:54;;;;;;;7.60;3.97;;;33.90;50.20;;;;;;4964352;28;20047;-66
2022/06/23 14:01:52;;;;;;;9.00;4.38;;;34.00;51.20;;;;;;4956416;28;20576;-66
2022/06/23 14:04:47;;;;;;;8.27;3.88;;;34.10;47.80;;;;;;4953836;29;20122;-66
2022/06/23 14:07:16;;;;;;;8.60;4.20;;;34.10;48.30;;;;;;4960778;28;20035;-66
2022/06/23 14:09:50;;;;;;;5.72;4.00;;;34.10;48.40;;;;;;4958256;28;20043;-66
2022/06/23 14:12:26;;;;;;;8.52;3.83;;;34.30;47.90;;;;;;4952911;28;20047;-66
2022/06/23 14:15:15;;;;;;;9.10;4.25;;;34.50;48.10;;;;;;4956281;28;20066;-66
2022/06/23 14:17:53;;;;;;;6.75;4.00;;;35.00;48.10;;;;;;4950955;28;20481;-66